createdAt,value
2023-05-24T00:00:43.296Z,12.90
2023-05-24T00:03:10.346Z,12.90
2023-05-24T00:05:37.926Z,12.80
2023-05-24T00:08:05.099Z,12.80
2023-05-24T00:10:31.871Z,12.90
2023-05-24T00:12:58.685Z,12.80
2023-05-24T00:15:25.824Z,13.40
2023-05-24T00:17:52.629Z,12.70
2023-05-24T00:20:21.110Z,12.70
2023-05-24T00:22:48.060Z,12.70
2023-05-24T00:25:14.847Z,12.60
2023-05-24T00:27:41.674Z,12.60
2023-05-24T00:30:08.722Z,13.90
2023-05-24T00:32:35.791Z,12.50
2023-05-24T00:35:03.259Z,12.90
2023-05-24T00:37:30.144Z,12.40
2023-05-24T00:39:56.971Z,12.50
2023-05-24T00:42:23.926Z,13.50
2023-05-24T00:44:50.718Z,13.60
2023-05-24T00:47:17.705Z,13.40
2023-05-24T00:49:44.673Z,12.60
2023-05-24T00:52:11.604Z,13.00
2023-05-24T00:54:40.873Z,12.50
2023-05-24T00:57:08.001Z,13.70
2023-05-24T00:59:34.792Z,13.40
2023-05-24T01:02:01.801Z,12.60
2023-05-24T01:04:28.831Z,12.50
2023-05-24T01:07:14.607Z,13.40
2023-05-24T01:10:01.645Z,12.40
2023-05-24T01:12:53.764Z,12.30
2023-05-24T01:15:43.754Z,12.20
2023-05-24T01:18:22.274Z,12.20
2023-05-24T01:20:56.470Z,12.20
2023-05-24T01:23:34.440Z,13.40
2023-05-24T01:26:17.639Z,12.10
2023-05-24T01:28:45.715Z,12.40
2023-05-24T01:31:14.745Z,11.90
2023-05-24T01:33:44.810Z,11.90
2023-05-24T01:36:11.719Z,13.10
2023-05-24T01:38:40.209Z,11.80
2023-05-24T01:41:21.631Z,11.80
2023-05-24T01:44:16.187Z,11.80
2023-05-24T01:46:47.930Z,11.80
2023-05-24T01:49:29.805Z,12.90
2023-05-24T01:52:04.292Z,12.70
2023-05-24T01:54:38.980Z,11.70
2023-05-24T01:57:09.258Z,11.60
2023-05-24T01:59:38.288Z,13.10
2023-05-24T02:02:05.828Z,11.60
2023-05-24T02:04:32.760Z,11.50
2023-05-24T02:06:59.498Z,11.50
2023-05-24T02:09:26.340Z,12.90
2023-05-24T02:11:53.306Z,13.10
2023-05-24T02:14:20.673Z,12.50
2023-05-24T02:16:47.965Z,12.40
2023-05-24T02:19:15.192Z,12.90
2023-05-24T02:21:42.283Z,13.10
2023-05-24T02:24:11.430Z,13.30
2023-05-24T02:26:39.280Z,12.60
2023-05-24T02:29:06.510Z,11.70
2023-05-24T02:31:33.524Z,11.70
2023-05-24T02:34:00.422Z,11.70
2023-05-24T02:36:27.648Z,11.70
2023-05-24T02:38:54.451Z,11.70
2023-05-24T02:41:22.210Z,13.50
2023-05-24T02:43:49.113Z,13.00
2023-05-24T02:46:17.091Z,11.80
2023-05-24T02:48:43.918Z,13.20
2023-05-24T02:51:10.853Z,11.70
2023-05-24T02:53:37.575Z,13.00
2023-05-24T02:56:04.362Z,11.70
2023-05-24T02:58:31.106Z,12.60
2023-05-24T03:00:57.867Z,11.50
2023-05-24T03:03:25.126Z,11.50
2023-05-24T03:05:52.281Z,12.80
2023-05-24T03:08:19.011Z,12.30
2023-05-24T03:10:45.968Z,12.80
2023-05-24T03:13:12.717Z,12.70
2023-05-24T03:15:39.431Z,11.50
2023-05-24T03:18:06.201Z,11.50
2023-05-24T03:20:33.986Z,13.10
2023-05-24T03:23:01.042Z,11.60
2023-05-24T03:25:27.850Z,11.60
2023-05-24T03:27:54.685Z,11.70
2023-05-24T03:30:22.290Z,11.70
2023-05-24T03:32:49.894Z,11.70
2023-05-24T03:35:16.940Z,12.90
2023-05-24T03:37:43.891Z,13.20
2023-05-24T03:40:11.063Z,11.90
2023-05-24T03:42:38.581Z,11.90
2023-05-24T03:45:06.071Z,11.90
2023-05-24T03:47:32.888Z,11.90
2023-05-24T03:49:59.643Z,11.90
2023-05-24T03:52:26.458Z,12.00
2023-05-24T03:54:53.196Z,12.70
2023-05-24T03:57:20.254Z,12.00
2023-05-24T03:59:47.064Z,11.90
2023-05-24T04:02:13.942Z,11.90
2023-05-24T04:04:40.773Z,12.40
2023-05-24T04:07:08.249Z,11.90
2023-05-24T04:09:34.981Z,11.90
2023-05-24T04:12:02.230Z,11.90
2023-05-24T04:14:28.972Z,12.70
2023-05-24T04:16:55.926Z,12.00
2023-05-24T04:19:23.135Z,12.00
2023-05-24T04:21:50.539Z,12.20
2023-05-24T04:24:17.411Z,12.20
2023-05-24T04:26:44.854Z,13.80
2023-05-24T04:29:11.584Z,12.30
2023-05-24T04:31:38.455Z,12.30
2023-05-24T04:34:07.403Z,12.60
2023-05-24T04:36:35.591Z,12.20
2023-05-24T04:39:05.042Z,12.20
2023-05-24T04:41:32.304Z,13.10
2023-05-24T04:44:01.786Z,12.30
2023-05-24T04:46:28.821Z,13.90
2023-05-24T04:48:55.799Z,12.50
2023-05-24T04:51:23.197Z,12.60
2023-05-24T04:53:50.021Z,12.90
2023-05-24T04:56:17.177Z,12.70
2023-05-24T04:58:44.095Z,12.70
2023-05-24T05:01:11.008Z,12.80
2023-05-24T05:03:37.906Z,12.90
2023-05-24T05:06:05.030Z,13.10
2023-05-24T05:08:31.822Z,13.00
2023-05-24T05:10:58.768Z,13.10
2023-05-24T05:13:25.683Z,13.20
2023-05-24T05:15:52.657Z,13.30
2023-05-24T05:18:19.626Z,13.30
2023-05-24T05:20:46.741Z,13.40
2023-05-24T05:23:13.760Z,14.20
2023-05-24T05:25:40.748Z,13.50
2023-05-24T05:28:07.467Z,13.70
2023-05-24T05:30:34.249Z,13.80
2023-05-24T05:33:01.726Z,14.60
2023-05-24T05:35:28.574Z,14.10
2023-05-24T05:37:55.271Z,14.20
2023-05-24T05:40:22.087Z,14.30
2023-05-24T05:42:49.999Z,14.40
2023-05-24T05:45:16.968Z,14.50
2023-05-24T05:47:43.840Z,15.90
2023-05-24T05:50:11.039Z,14.80
2023-05-24T05:52:37.806Z,15.00
2023-05-24T05:55:04.896Z,15.20
2023-05-24T05:57:31.624Z,15.40
2023-05-24T05:59:58.384Z,15.50
2023-05-24T06:02:25.266Z,15.50
2023-05-24T06:04:52.136Z,15.40
2023-05-24T06:07:18.911Z,15.40
2023-05-24T06:09:45.780Z,15.40
2023-05-24T06:12:12.551Z,15.40
2023-05-24T06:14:39.356Z,15.40
2023-05-24T06:17:07.117Z,16.20
2023-05-24T06:19:33.988Z,16.90
2023-05-24T06:22:01.514Z,15.60
2023-05-24T06:24:28.720Z,15.70
2023-05-24T06:26:55.922Z,16.90
2023-05-24T06:29:22.940Z,16.40
2023-05-24T06:31:50.461Z,15.80
2023-05-24T06:34:21.060Z,15.90
2023-05-24T06:36:48.544Z,16.00
2023-05-24T06:39:16.491Z,16.00
2023-05-24T06:41:44.543Z,16.10
2023-05-24T06:44:11.470Z,17.00
2023-05-24T06:46:38.324Z,17.20
2023-05-24T06:49:05.270Z,16.20
2023-05-24T06:51:33.911Z,17.20
2023-05-24T06:54:01.015Z,16.40
2023-05-24T06:56:28.905Z,17.40
2023-05-24T06:58:56.625Z,16.50
2023-05-24T07:01:23.443Z,16.50
2023-05-24T07:03:50.314Z,16.50
2023-05-24T07:06:17.239Z,16.50
2023-05-24T07:08:44.004Z,17.90
2023-05-24T07:11:11.009Z,16.70
2023-05-24T07:13:37.717Z,16.80
2023-05-24T07:16:04.669Z,16.90
2023-05-24T07:18:31.621Z,17.00
2023-05-24T07:20:58.416Z,17.10
2023-05-24T07:23:25.223Z,17.30
2023-05-24T07:25:52.149Z,17.40
2023-05-24T07:28:20.250Z,17.50
2023-05-24T07:30:47.326Z,17.60
2023-05-24T07:33:14.340Z,18.70
2023-05-24T07:35:41.895Z,17.80
2023-05-24T07:38:08.907Z,17.90
2023-05-24T07:40:35.654Z,18.20
2023-05-24T07:43:04.017Z,18.60
2023-05-24T07:45:31.760Z,18.30
2023-05-24T07:47:58.787Z,18.60
2023-05-24T07:50:26.483Z,18.50
2023-05-24T07:52:53.428Z,18.60
2023-05-24T07:55:20.567Z,18.70
2023-05-24T07:57:47.719Z,18.90
2023-05-24T08:00:15.143Z,18.90
2023-05-24T08:02:46.457Z,19.00
2023-05-24T08:05:13.706Z,19.30
2023-05-24T08:07:41.801Z,19.20
2023-05-24T08:10:14.066Z,19.20
2023-05-24T08:12:41.811Z,19.40
2023-05-24T08:15:09.188Z,19.50
2023-05-24T08:17:36.866Z,19.60
2023-05-24T08:20:08.889Z,19.70
2023-05-24T08:22:37.370Z,19.80
2023-05-24T08:25:04.426Z,20.00
2023-05-24T08:27:31.232Z,20.10
2023-05-24T08:29:57.992Z,20.20
2023-05-24T08:32:25.214Z,20.30
2023-05-24T08:35:00.307Z,20.40
2023-05-24T08:37:32.016Z,20.40
2023-05-24T08:39:59.198Z,20.50
2023-05-24T08:42:27.706Z,20.60
2023-05-24T08:45:03.095Z,20.70
2023-05-24T08:47:31.220Z,20.80
2023-05-24T08:49:58.890Z,20.80
2023-05-24T08:52:26.630Z,21.00
2023-05-24T08:54:53.818Z,21.20
2023-05-24T08:57:21.621Z,22.10
2023-05-24T08:59:48.370Z,21.30
2023-05-24T09:02:16.482Z,21.30
2023-05-24T09:04:46.488Z,21.40
2023-05-24T09:07:14.877Z,21.40
2023-05-24T09:09:46.785Z,21.50
2023-05-24T09:12:28.278Z,21.70
2023-05-24T09:15:03.751Z,21.90
2023-05-24T09:17:35.245Z,21.90
2023-05-24T09:20:02.756Z,22.50
2023-05-24T09:22:30.885Z,22.20
2023-05-24T09:25:00.340Z,22.30
2023-05-24T09:27:27.832Z,22.30
2023-05-24T09:29:55.779Z,22.30
2023-05-24T09:32:26.289Z,22.30
2023-05-24T09:34:54.039Z,22.30
2023-05-24T09:37:28.151Z,22.40
2023-05-24T09:39:58.398Z,22.40
2023-05-24T09:42:30.363Z,22.20
2023-05-24T09:45:01.620Z,22.30
2023-05-24T09:47:29.597Z,22.40
2023-05-24T09:49:56.552Z,22.40
2023-05-24T09:52:23.289Z,22.50
2023-05-24T09:54:50.244Z,22.60
2023-05-24T09:57:17.638Z,22.60
2023-05-24T09:59:44.701Z,22.60
2023-05-24T10:02:12.502Z,22.80
2023-05-24T10:04:40.283Z,22.80
2023-05-24T10:07:08.124Z,22.90
2023-05-24T10:09:35.814Z,22.90
2023-05-24T10:12:04.960Z,22.90
2023-05-24T10:14:39.053Z,22.70
2023-05-24T10:17:09.168Z,22.50
2023-05-24T10:19:37.580Z,22.60
2023-05-24T10:22:11.674Z,22.50
2023-05-24T10:24:47.746Z,22.40
2023-05-24T10:27:18.386Z,22.40
2023-05-24T10:29:56.801Z,22.50
2023-05-24T10:32:25.294Z,22.50
2023-05-24T10:34:54.073Z,22.80
2023-05-24T10:37:21.421Z,22.50
2023-05-24T10:39:48.137Z,22.70
2023-05-24T10:42:14.999Z,22.80
2023-05-24T10:44:42.137Z,22.90
2023-05-24T10:47:13.124Z,23.00
2023-05-24T10:49:54.279Z,23.00
2023-05-24T10:52:21.304Z,23.10
2023-05-24T10:55:09.964Z,23.30
2023-05-24T10:57:38.395Z,23.30
2023-05-24T11:00:34.505Z,23.40
2023-05-24T11:03:14.145Z,23.50
2023-05-24T11:05:49.364Z,23.50
2023-05-24T11:08:43.648Z,23.50
2023-05-24T11:13:43.601Z,23.80
2023-05-24T11:16:30.388Z,23.60
2023-05-24T11:18:57.135Z,23.40
2023-05-24T11:21:24.307Z,23.30
2023-05-24T11:23:51.520Z,23.10
2023-05-24T11:26:18.604Z,23.10
2023-05-24T11:28:47.433Z,23.30
2023-05-24T11:31:14.795Z,23.40
2023-05-24T11:33:42.589Z,23.40
2023-05-24T11:36:09.767Z,23.30
2023-05-24T11:38:37.661Z,23.30
2023-05-24T11:41:05.114Z,23.20
2023-05-24T11:43:32.013Z,23.20
2023-05-24T11:45:58.952Z,23.10
2023-05-24T11:48:26.214Z,23.10
2023-05-24T11:50:53.244Z,23.00
2023-05-24T11:53:21.254Z,23.10
2023-05-24T11:55:48.864Z,23.20
2023-05-24T11:58:24.854Z,23.30
2023-05-24T12:00:52.222Z,23.30
2023-05-24T12:03:19.439Z,23.20
2023-05-24T12:05:46.366Z,23.10
2023-05-24T12:08:15.497Z,23.10
2023-05-24T12:10:43.488Z,23.00
2023-05-24T12:13:21.842Z,23.00
2023-05-24T12:15:53.893Z,23.00
2023-05-24T12:18:24.444Z,23.30
2023-05-24T12:20:52.071Z,23.00
2023-05-24T12:23:25.070Z,23.30
2023-05-24T12:25:57.621Z,23.30
2023-05-24T12:28:25.016Z,23.30
2023-05-24T12:30:51.852Z,23.20
2023-05-24T12:33:21.650Z,23.10
2023-05-24T12:35:49.970Z,23.20
2023-05-24T12:38:25.118Z,23.20
2023-05-24T12:41:08.213Z,23.10
2023-05-24T12:43:40.656Z,23.10
2023-05-24T12:46:07.804Z,23.20
2023-05-24T12:48:35.277Z,23.30
2023-05-24T12:51:03.082Z,23.30
2023-05-24T12:53:30.028Z,23.20
2023-05-24T12:55:57.058Z,23.20
2023-05-24T12:58:23.952Z,23.20
2023-05-24T13:00:52.413Z,23.30
2023-05-24T13:03:19.231Z,23.30
2023-05-24T13:05:47.296Z,23.40
2023-05-24T13:08:14.861Z,23.40
2023-05-24T13:10:41.964Z,23.40
2023-05-24T13:13:08.974Z,23.60
2023-05-24T13:15:36.359Z,23.70
2023-05-24T13:18:03.271Z,23.90
2023-05-24T13:20:30.140Z,23.90
2023-05-24T13:22:57.149Z,23.80
2023-05-24T13:25:23.954Z,23.80
2023-05-24T13:27:50.865Z,23.90
2023-05-24T13:30:18.099Z,23.90
2023-05-24T13:32:45.026Z,23.80
2023-05-24T13:35:11.964Z,23.80
2023-05-24T13:37:39.196Z,23.80
2023-05-24T13:40:07.115Z,23.80
2023-05-24T13:42:33.936Z,23.80
2023-05-24T13:45:01.143Z,23.80
2023-05-24T13:47:39.408Z,23.80
2023-05-24T13:50:07.683Z,23.70
2023-05-24T13:52:35.009Z,23.60
2023-05-24T13:55:04.829Z,23.60
2023-05-24T13:57:49.621Z,23.60
2023-05-24T14:00:18.928Z,23.70
2023-05-24T14:02:46.207Z,23.80
2023-05-24T14:05:26.918Z,23.70
2023-05-24T14:07:55.929Z,23.70
2023-05-24T14:10:22.766Z,23.60
2023-05-24T14:13:03.516Z,23.50
2023-05-24T14:15:36.951Z,23.50
2023-05-24T14:18:08.505Z,23.40
2023-05-24T14:20:40.507Z,23.30
2023-05-24T14:23:07.994Z,23.30
2023-05-24T14:25:35.076Z,23.30
2023-05-24T14:28:03.723Z,23.30
2023-05-24T14:30:33.595Z,23.30
2023-05-24T14:33:03.385Z,23.30
2023-05-24T14:35:30.228Z,23.30
2023-05-24T14:37:56.972Z,23.20
2023-05-24T14:40:24.074Z,23.20
2023-05-24T14:42:51.165Z,23.10
2023-05-24T14:45:17.904Z,23.00
2023-05-24T14:47:44.941Z,23.00
2023-05-24T14:50:11.902Z,22.80
2023-05-24T14:52:38.671Z,22.80
2023-05-24T14:55:06.119Z,22.90
2023-05-24T14:57:33.061Z,22.90
2023-05-24T15:00:07.709Z,22.90
2023-05-24T15:02:34.766Z,22.90
2023-05-24T15:05:01.695Z,22.80
2023-05-24T15:07:28.536Z,22.70
2023-05-24T15:09:55.363Z,22.60
2023-05-24T15:12:23.115Z,22.60
2023-05-24T15:14:49.878Z,22.80
2023-05-24T15:17:17.303Z,22.70
2023-05-24T15:19:45.230Z,22.50
2023-05-24T15:22:12.172Z,22.50
2023-05-24T15:24:38.889Z,22.40
2023-05-24T15:27:05.835Z,22.50
2023-05-24T15:29:32.713Z,22.40
2023-05-24T15:32:01.442Z,22.40
2023-05-24T15:34:28.338Z,22.40
2023-05-24T15:36:55.214Z,22.30
2023-05-24T15:39:21.994Z,22.20
2023-05-24T15:41:48.839Z,22.20
2023-05-24T15:44:15.616Z,22.20
2023-05-24T15:46:43.421Z,22.20
2023-05-24T15:49:10.324Z,22.20
2023-05-24T15:54:06.911Z,22.10
2023-05-24T15:56:33.695Z,22.20
2023-05-24T15:59:00.634Z,22.10
2023-05-24T16:01:27.551Z,22.20
2023-05-24T16:03:54.406Z,22.30
2023-05-24T16:06:21.445Z,22.30
2023-05-24T16:08:49.434Z,22.20
2023-05-24T16:11:16.404Z,22.30
2023-05-24T16:13:43.232Z,22.20
2023-05-24T16:16:10.073Z,22.20
2023-05-24T16:18:37.152Z,21.60
2023-05-24T16:21:04.269Z,21.90
2023-05-24T16:23:30.986Z,21.90
2023-05-24T16:25:58.066Z,21.80
2023-05-24T16:28:25.112Z,22.50
2023-05-24T16:30:55.741Z,21.70
2023-05-24T16:33:23.570Z,21.70
2023-05-24T16:35:55.719Z,21.70
2023-05-24T16:38:26.151Z,21.70
2023-05-24T16:40:54.110Z,21.60
2023-05-24T16:43:21.630Z,21.50
2023-05-24T16:45:48.456Z,21.40
2023-05-24T16:48:15.728Z,21.30
2023-05-24T16:50:42.866Z,21.20
2023-05-24T16:53:09.917Z,21.20
2023-05-24T16:55:36.783Z,21.10
2023-05-24T16:58:03.847Z,21.00
2023-05-24T17:00:30.618Z,20.90
2023-05-24T17:02:59.490Z,20.80
2023-05-24T17:05:26.313Z,21.00
2023-05-24T17:07:53.092Z,20.70
2023-05-24T17:10:20.091Z,20.60
2023-05-24T17:12:47.522Z,20.60
2023-05-24T17:15:14.284Z,20.60
2023-05-24T17:17:41.322Z,20.90
2023-05-24T17:20:09.048Z,21.40
2023-05-24T17:22:35.871Z,21.70
2023-05-24T17:25:02.970Z,23.30
2023-05-24T17:27:29.949Z,23.80
2023-05-24T17:29:56.997Z,24.20
2023-05-24T17:32:23.836Z,24.30
2023-05-24T17:34:50.611Z,23.80
2023-05-24T17:37:17.312Z,23.10
2023-05-24T17:39:44.048Z,22.70
2023-05-24T17:42:10.999Z,22.60
2023-05-24T17:44:37.688Z,23.70
2023-05-24T17:47:04.874Z,24.30
2023-05-24T17:49:32.400Z,25.10
2023-05-24T17:52:01.040Z,26.30
2023-05-24T18:31:20.438Z,28.30
2023-05-24T18:33:47.403Z,27.80
2023-05-24T18:36:14.145Z,26.60
2023-05-24T18:38:41.172Z,25.50
2023-05-24T18:41:11.918Z,24.60
2023-05-24T18:43:39.216Z,23.90
2023-05-24T18:46:06.162Z,23.40
2023-05-24T18:48:32.900Z,22.90
2023-05-24T18:50:59.618Z,22.60
2023-05-24T18:53:26.384Z,22.20
2023-05-24T18:55:53.121Z,21.80
2023-05-24T18:58:20.110Z,21.60
2023-05-24T19:00:47.193Z,21.30
2023-05-24T19:03:14.227Z,21.20
2023-05-24T19:05:43.574Z,21.00
2023-05-24T19:08:11.177Z,20.70
2023-05-24T19:10:37.944Z,20.50
2023-05-24T19:13:06.259Z,20.10
2023-05-24T19:15:35.170Z,19.80
2023-05-24T19:18:02.257Z,19.70
2023-05-24T19:20:29.156Z,19.20
2023-05-24T19:22:56.479Z,18.90
2023-05-24T19:25:23.236Z,18.70
2023-05-24T19:27:59.354Z,18.40
2023-05-24T19:30:27.369Z,18.90
2023-05-24T19:32:54.294Z,18.10
2023-05-24T19:35:21.156Z,17.90
2023-05-24T19:37:48.067Z,17.80
2023-05-24T19:40:14.906Z,17.70
2023-05-24T19:42:41.699Z,17.60
2023-05-24T19:45:09.676Z,17.40
2023-05-24T19:47:36.526Z,17.30
2023-05-24T19:50:03.585Z,17.70
2023-05-24T19:52:30.531Z,17.10
2023-05-24T19:54:57.468Z,17.00
2023-05-24T19:57:24.390Z,16.90
2023-05-24T19:59:51.375Z,16.80
2023-05-24T20:02:18.116Z,16.60
2023-05-24T20:04:44.870Z,16.50
2023-05-24T20:07:11.809Z,16.40
2023-05-24T20:09:38.918Z,16.30
2023-05-24T20:12:06.208Z,16.10
2023-05-24T20:14:33.068Z,16.00
2023-05-24T20:17:00.176Z,17.40
2023-05-24T20:19:28.142Z,16.90
2023-05-24T20:21:55.121Z,15.70
2023-05-24T20:24:21.994Z,15.60
2023-05-24T20:26:48.743Z,15.60
2023-05-24T20:29:15.669Z,15.40
2023-05-24T20:31:42.667Z,15.30
2023-05-24T20:34:09.532Z,15.60
2023-05-24T20:36:37.094Z,15.20
2023-05-24T20:39:04.200Z,15.10
2023-05-24T20:41:31.276Z,16.60
2023-05-24T20:43:58.352Z,14.90
2023-05-24T20:46:25.552Z,16.00
2023-05-24T20:48:53.712Z,16.20
2023-05-24T20:51:20.992Z,14.60
2023-05-24T20:53:49.067Z,14.50
2023-05-24T20:56:16.138Z,14.40
2023-05-24T20:58:43.927Z,14.40
2023-05-24T21:01:11.080Z,14.30
2023-05-24T21:03:38.357Z,14.20
2023-05-24T21:06:05.984Z,14.20
2023-05-24T21:08:33.049Z,14.10
2023-05-24T21:11:00.159Z,14.00
2023-05-24T21:13:28.632Z,14.00
2023-05-24T21:15:55.612Z,13.90
2023-05-24T21:18:22.723Z,13.90
2023-05-24T21:20:49.959Z,13.80
2023-05-24T21:23:16.952Z,13.70
2023-05-24T21:25:44.079Z,13.70
2023-05-24T21:28:11.378Z,13.60
2023-05-24T21:30:38.306Z,13.60
2023-05-24T21:33:05.591Z,13.50
2023-05-24T21:35:32.950Z,13.50
2023-05-24T21:38:00.457Z,13.40
2023-05-24T21:40:27.561Z,13.40
2023-05-24T21:42:54.684Z,13.40
2023-05-24T21:45:21.926Z,13.30
2023-05-24T21:47:48.924Z,13.40
2023-05-24T21:50:16.309Z,13.40
2023-05-24T21:52:43.318Z,13.40
2023-05-24T21:55:10.462Z,13.40
2023-05-24T21:57:40.537Z,13.40
2023-05-24T22:00:08.983Z,13.40
2023-05-24T22:02:37.005Z,13.40
2023-05-24T22:05:05.384Z,13.40
2023-05-24T22:07:32.804Z,13.40
2023-05-24T22:09:59.979Z,13.40
2023-05-24T22:12:26.871Z,13.50
2023-05-24T22:14:53.932Z,13.40
2023-05-24T22:17:22.773Z,13.50
2023-05-24T22:19:49.859Z,13.50
2023-05-24T22:22:19.733Z,13.50
2023-05-24T22:24:47.368Z,13.50
2023-05-24T22:27:14.887Z,13.50
2023-05-24T22:29:41.940Z,13.50
2023-05-24T22:32:09.338Z,13.60
2023-05-24T22:34:36.480Z,13.50
2023-05-24T22:37:03.617Z,13.50
2023-05-24T22:39:30.881Z,13.60
2023-05-24T22:41:57.706Z,13.60
2023-05-24T22:44:24.954Z,13.60
2023-05-24T22:46:54.828Z,13.50
2023-05-24T22:49:22.316Z,13.50
2023-05-24T22:51:51.138Z,13.50
2023-05-24T22:54:18.416Z,13.40
2023-05-24T22:56:46.566Z,13.40
2023-05-24T22:59:13.791Z,13.40
2023-05-24T23:01:41.202Z,13.40
2023-05-24T23:04:20.499Z,13.40
2023-05-24T23:06:49.655Z,13.40
2023-05-24T23:09:17.656Z,13.40
2023-05-24T23:11:46.403Z,13.50
2023-05-24T23:14:14.529Z,13.50
2023-05-24T23:16:45.499Z,13.50
2023-05-24T23:19:13.678Z,13.40
2023-05-24T23:21:42.702Z,13.40
2023-05-24T23:24:14.740Z,13.40
2023-05-24T23:26:42.893Z,13.40
2023-05-24T23:29:10.151Z,13.40
2023-05-24T23:31:37.136Z,13.40
2023-05-24T23:34:04.992Z,13.40
2023-05-24T23:36:32.059Z,13.30
2023-05-24T23:38:59.049Z,13.40
2023-05-24T23:41:27.025Z,13.40
2023-05-24T23:43:55.320Z,13.40
2023-05-24T23:46:22.558Z,13.70
2023-05-24T23:48:49.864Z,13.40
2023-05-24T23:51:17.206Z,13.40
2023-05-24T23:53:44.300Z,13.40
2023-05-24T23:56:11.847Z,13.40
2023-05-24T23:58:38.944Z,13.40
